Time;durP1;ratioP1;P1;durP2;ratioP2;P2;SDS_P1;SDS_P2;PMS_P1;PMS_P2;Temp;Humidity;BMP_temperature;BMP_pressure;BME280_temperature;BME280_humidity;BME280_pressure;Samples;Min_cycle;Max_cycle;Signal;HPM_P1;HPM_P2
2021/08/11 00:02:10;;;;;;;6.38;4.45;;;17.70;99.90;;;;;;5061052;28;20355;-74
2021/08/11 00:04:36;;;;;;;8.00;4.22;;;17.70;99.90;;;;;;5057666;28;20064;-74
2021/08/11 00:07:02;;;;;;;7.00;4.20;;;17.70;99.90;;;;;;5053431;28;20037;-74
2021/08/11 00:09:29;;;;;;;8.40;4.63;;;17.60;99.90;;;;;;5053890;28;20033;-74
2021/08/11 00:11:55;;;;;;;8.35;4.20;;;17.60;99.90;;;;;;5061482;28;20031;-74
2021/08/11 00:14:21;;;;;;;5.28;4.10;;;17.50;99.90;;;;;;5067331;28;20494;-74
2021/08/11 00:16:47;;;;;;;6.05;4.47;;;17.50;99.90;;;;;;5053084;28;20041;-75
2021/08/11 00:19:13;;;;;;;10.07;4.80;;;17.40;99.90;;;;;;5056888;28;20024;-74
2021/08/11 00:21:40;;;;;;;8.23;5.07;;;17.30;99.90;;;;;;5066602;28;20051;-74
2021/08/11 00:24:06;;;;;;;12.73;4.97;;;17.20;99.90;;;;;;5053487;28;20220;-74
2021/08/11 00:26:32;;;;;;;8.30;4.90;;;17.20;99.90;;;;;;5053621;28;20041;-74
2021/08/11 00:28:58;;;;;;;6.75;4.28;;;17.30;99.90;;;;;;5070988;28;20040;-74
2021/08/11 00:31:25;;;;;;;6.85;4.07;;;17.40;99.90;;;;;;5053816;28;20037;-74
2021/08/11 00:33:51;;;;;;;8.35;4.68;;;17.40;99.90;;;;;;5053543;28;20053;-74
2021/08/11 00:36:17;;;;;;;7.10;5.43;;;17.40;99.90;;;;;;5067641;28;20053;-74
2021/08/11 00:38:46;;;;;;;9.52;5.13;;;17.40;99.90;;;;;;5060128;28;20500;-74
2021/08/11 00:41:15;;;;;;;7.85;5.10;;;17.40;99.90;;;;;;5056824;28;20075;-74
2021/08/11 00:43:42;;;;;;;7.72;4.30;;;17.40;99.90;;;;;;5067237;28;20414;-74
2021/08/11 00:46:12;;;;;;;6.22;4.90;;;17.40;99.90;;;;;;5066816;28;20391;-74
2021/08/11 00:48:39;;;;;;;6.60;4.53;;;17.40;99.90;;;;;;5051670;28;20482;-74
2021/08/11 00:51:10;;;;;;;;;;;17.40;99.90;;;;;;5068387;28;20044;-72
2021/08/11 00:53:39;;;;;;;6.15;4.78;;;17.40;99.90;;;;;;5065976;28;19912;-73
2021/08/11 00:56:06;;;;;;;10.88;4.88;;;17.30;99.90;;;;;;5066769;28;20503;-74
2021/08/11 00:58:35;;;;;;;7.72;4.82;;;17.30;99.90;;;;;;5051272;28;20040;-74
2021/08/11 01:01:02;;;;;;;6.97;4.82;;;17.20;99.90;;;;;;5066886;28;20041;-74
2021/08/11 01:03:29;;;;;;;8.70;5.85;;;17.20;99.90;;;;;;5051047;28;20048;-73
2021/08/11 01:06:00;;;;;;;7.03;4.85;;;17.30;99.90;;;;;;5050849;28;20037;-74
2021/08/11 01:08:30;;;;;;;7.57;4.13;;;17.20;99.90;;;;;;5066894;28;20045;-73
2021/08/11 01:10:58;;;;;;;10.18;5.75;;;17.10;99.90;;;;;;5051354;28;20382;-73
2021/08/11 01:13:25;;;;;;;9.77;5.35;;;17.00;99.90;;;;;;5050348;28;20037;-73
2021/08/11 01:15:53;;;;;;;10.80;4.78;;;16.90;99.90;;;;;;5067562;28;20402;-73
2021/08/11 01:18:24;;;;;;;8.63;5.28;;;16.90;99.90;;;;;;5062164;28;20045;-73
2021/08/11 01:21:06;;;;;;;7.40;5.32;;;16.80;99.90;;;;;;5051721;28;20064;-73
2021/08/11 01:23:41;;;;;;;15.43;5.65;;;16.90;99.90;;;;;;5051634;28;20044;-73
2021/08/11 01:26:22;;;;;;;6.47;5.13;;;16.90;99.90;;;;;;5057398;28;20052;-74
2021/08/11 01:29:02;;;;;;;9.75;5.10;;;16.90;99.90;;;;;;5070548;28;20504;-74
2021/08/11 01:31:51;;;;;;;7.05;5.07;;;17.10;99.90;;;;;;5070383;28;20047;-74
2021/08/11 01:34:28;;;;;;;7.03;4.28;;;17.10;99.90;;;;;;5051297;28;20044;-74
2021/08/11 01:37:03;;;;;;;6.38;5.20;;;17.10;99.90;;;;;;5051033;28;20060;-74
2021/08/11 01:39:47;;;;;;;7.35;5.15;;;17.20;99.90;;;;;;5034332;28;20068;-73
2021/08/11 01:42:28;;;;;;;7.00;5.03;;;17.20;99.90;;;;;;5066351;28;20037;-74
2021/08/11 01:45:05;;;;;;;7.07;5.10;;;17.20;99.90;;;;;;5068233;28;20056;-73
2021/08/11 01:47:40;;;;;;;9.57;5.22;;;17.10;99.90;;;;;;5070296;28;20481;-72
2021/08/11 01:50:11;;;;;;;7.43;4.97;;;17.10;99.90;;;;;;5034155;28;20251;-72
2021/08/11 01:52:43;;;;;;;6.88;4.55;;;17.00;99.90;;;;;;5041797;28;20039;-72
2021/08/11 01:55:13;;;;;;;8.02;4.82;;;17.00;99.90;;;;;;5050097;28;20474;-74
2021/08/11 01:57:47;;;;;;;9.10;5.57;;;17.00;99.90;;;;;;5050233;28;20084;-74
2021/08/11 02:00:14;;;;;;;;;;;17.00;99.90;;;;;;5065875;28;20040;-75
2021/08/11 02:02:41;;;;;;;7.95;6.47;;;17.10;99.90;;;;;;5055376;28;19920;-73
2021/08/11 02:05:18;;;;;;;10.27;5.35;;;17.10;99.90;;;;;;5065752;28;20052;-73
2021/08/11 02:07:45;;;;;;;9.27;5.13;;;17.10;99.90;;;;;;5052019;28;20049;-73
2021/08/11 02:10:14;;;;;;;5.65;5.05;;;17.20;99.90;;;;;;5068072;28;20048;-73
2021/08/11 02:12:41;;;;;;;8.43;5.13;;;17.20;99.90;;;;;;5071344;28;20498;-73
2021/08/11 02:15:10;;;;;;;8.10;5.05;;;17.30;99.90;;;;;;5078353;28;20040;-73
2021/08/11 02:17:38;;;;;;;10.70;5.32;;;17.30;99.90;;;;;;5062124;28;20064;-73
2021/08/11 02:20:07;;;;;;;7.00;4.90;;;17.30;99.90;;;;;;5067832;28;20037;-73
2021/08/11 02:22:33;;;;;;;8.20;5.55;;;17.30;99.90;;;;;;5068417;28;20048;-73
2021/08/11 02:25:03;;;;;;;6.40;5.60;;;17.30;99.90;;;;;;5060483;28;20024;-74
2021/08/11 02:27:35;;;;;;;8.60;5.63;;;17.20;99.90;;;;;;5060450;28;20037;-73
2021/08/11 02:30:13;;;;;;;10.05;5.43;;;17.20;99.90;;;;;;5064625;28;20063;-74
2021/08/11 02:33:03;;;;;;;6.38;4.90;;;17.20;99.90;;;;;;5081959;28;20056;-74
2021/08/11 02:35:43;;;;;;;10.35;5.35;;;17.10;99.90;;;;;;5068711;28;20072;-73
2021/08/11 02:38:11;;;;;;;8.15;5.68;;;17.10;99.90;;;;;;5064778;28;20047;-74
2021/08/11 02:40:48;;;;;;;7.78;5.97;;;17.00;99.90;;;;;;5050422;28;20041;-73
2021/08/11 02:43:34;;;;;;;7.97;5.28;;;16.90;99.90;;;;;;5067677;28;20398;-73
2021/08/11 02:46:11;;;;;;;7.55;5.55;;;16.90;99.90;;;;;;5051406;28;20466;-73
2021/08/11 02:48:39;;;;;;;7.20;5.20;;;16.90;99.90;;;;;;5051506;28;20059;-73
2021/08/11 02:51:08;;;;;;;9.05;5.63;;;16.90;99.90;;;;;;5064872;28;20051;-73
2021/08/11 02:53:36;;;;;;;7.88;5.25;;;17.00;99.90;;;;;;5064318;28;20048;-73
2021/08/11 02:56:03;;;;;;;7.55;5.22;;;17.00;99.90;;;;;;5061339;28;20040;-73
2021/08/11 02:58:36;;;;;;;6.80;5.40;;;17.00;99.90;;;;;;5056830;28;20044;-74
2021/08/11 03:01:04;;;;;;;11.98;5.85;;;17.00;99.90;;;;;;5096339;28;20063;-73
2021/08/11 03:03:30;;;;;;;9.25;6.47;;;16.90;99.90;;;;;;5067962;28;20036;-73
2021/08/11 03:05:57;;;;;;;10.13;5.78;;;16.90;99.90;;;;;;5049459;28;20052;-73
2021/08/11 03:08:24;;;;;;;7.55;5.55;;;16.80;99.90;;;;;;5091019;28;20036;-73
2021/08/11 03:10:51;;;;;;;10.00;5.53;;;16.80;99.90;;;;;;5062363;28;20048;-74
2021/08/11 03:13:17;;;;;;;7.75;5.40;;;16.80;99.90;;;;;;5082857;28;20064;-74
2021/08/11 03:15:44;;;;;;;8.23;5.60;;;16.90;99.90;;;;;;5065208;28;20064;-73
2021/08/11 03:18:16;;;;;;;7.18;5.55;;;16.90;99.90;;;;;;5055635;28;20048;-74
2021/08/11 03:20:43;;;;;;;8.52;5.38;;;16.90;99.90;;;;;;5049692;28;20056;-73
2021/08/11 03:23:13;;;;;;;6.82;5.13;;;16.90;99.90;;;;;;5064651;28;20037;-74
2021/08/11 03:25:41;;;;;;;;;;;16.90;99.90;;;;;;5049759;28;20049;-74
2021/08/11 03:28:11;;;;;;;10.32;5.53;;;17.00;99.90;;;;;;5064562;28;20520;-74
2021/08/11 03:30:39;;;;;;;5.75;4.95;;;17.00;99.90;;;;;;5063522;28;20478;-74
2021/08/11 03:33:06;;;;;;;9.07;5.57;;;17.00;99.90;;;;;;5048575;28;20041;-73
2021/08/11 03:35:33;;;;;;;12.43;5.78;;;16.90;99.90;;;;;;5065544;28;20048;-74
2021/08/11 03:38:00;;;;;;;11.75;6.30;;;16.90;99.90;;;;;;5068129;28;20045;-74
2021/08/11 03:40:26;;;;;;;10.32;6.40;;;16.80;99.90;;;;;;5054454;28;20045;-74
2021/08/11 03:42:53;;;;;;;11.80;6.55;;;16.70;99.90;;;;;;5071868;28;20048;-73
2021/08/11 03:45:22;;;;;;;10.98;6.60;;;16.70;99.90;;;;;;5068556;28;20048;-74
2021/08/11 03:47:48;;;;;;;8.60;5.57;;;16.70;99.90;;;;;;5068744;28;20397;-73
2021/08/11 03:50:16;;;;;;;9.07;7.03;;;16.60;99.90;;;;;;5068319;28;20518;-74
2021/08/11 03:52:45;;;;;;;;;;;16.70;99.90;;;;;;5055374;28;20040;-74
2021/08/11 03:55:15;;;;;;;9.40;6.57;;;16.70;99.90;;;;;;5062567;28;19915;-74
2021/08/11 03:57:42;;;;;;;9.80;6.93;;;16.70;99.90;;;;;;5068057;28;20045;-74
2021/08/11 04:00:10;;;;;;;8.43;6.25;;;16.70;99.90;;;;;;5085583;28;20057;-74
2021/08/11 04:02:45;;;;;;;9.70;6.78;;;16.70;99.90;;;;;;5060425;28;20040;-74
2021/08/11 04:05:11;;;;;;;8.82;6.63;;;16.70;99.90;;;;;;5061935;28;20045;-74
2021/08/11 04:07:37;;;;;;;9.57;6.97;;;16.80;99.90;;;;;;5054080;28;20402;-74
2021/08/11 04:10:08;;;;;;;8.45;6.80;;;16.70;99.90;;;;;;5066420;28;20032;-73
2021/08/11 04:12:35;;;;;;;8.60;6.57;;;16.70;99.90;;;;;;5062843;28;20052;-73
2021/08/11 04:15:01;;;;;;;11.23;6.90;;;16.70;99.90;;;;;;5053496;28;20041;-74
2021/08/11 04:17:27;;;;;;;9.82;7.00;;;16.60;99.90;;;;;;5053896;28;20048;-74
2021/08/11 04:19:53;;;;;;;12.00;7.60;;;16.60;99.90;;;;;;5071583;28;20518;-74
2021/08/11 04:22:20;;;;;;;9.40;6.18;;;16.70;99.90;;;;;;5064912;28;20033;-74
2021/08/11 04:24:46;;;;;;;9.82;7.03;;;16.70;99.90;;;;;;5053971;28;20045;-74
2021/08/11 04:27:12;;;;;;;12.73;7.03;;;16.70;99.90;;;;;;5056518;28;20041;-74
2021/08/11 04:29:38;;;;;;;11.27;7.85;;;16.70;99.90;;;;;;5069603;28;20037;-74
2021/08/11 04:32:05;;;;;;;8.82;7.57;;;16.70;99.90;;;;;;5058898;28;20497;-74
2021/08/11 04:34:31;;;;;;;10.35;7.43;;;16.70;99.90;;;;;;5073454;28;20063;-74
2021/08/11 04:36:58;;;;;;;11.15;7.22;;;16.60;99.90;;;;;;5062288;28;20055;-74
2021/08/11 04:39:24;;;;;;;9.43;7.15;;;16.60;99.90;;;;;;5072995;28;20048;-74
2021/08/11 04:41:50;;;;;;;10.63;7.70;;;16.60;99.90;;;;;;5056554;28;20045;-74
2021/08/11 04:44:16;;;;;;;10.85;8.13;;;16.60;99.90;;;;;;5053814;28;20044;-73
2021/08/11 04:46:43;;;;;;;11.73;7.90;;;16.60;99.90;;;;;;5053355;28;20462;-74
2021/08/11 04:49:09;;;;;;;11.60;8.25;;;16.60;99.90;;;;;;5053290;28;20417;-74
2021/08/11 04:51:35;;;;;;;8.77;7.40;;;16.60;99.90;;;;;;5053465;28;20049;-74
2021/08/11 04:54:02;;;;;;;11.88;7.05;;;16.60;99.90;;;;;;5053147;28;20036;-74
2021/08/11 04:56:28;;;;;;;10.32;7.20;;;16.50;99.90;;;;;;5062749;28;20056;-74
2021/08/11 04:58:54;;;;;;;9.63;7.30;;;16.50;99.90;;;;;;5052754;28;20049;-74
2021/08/11 05:01:20;;;;;;;10.65;8.23;;;16.50;99.90;;;;;;5052647;28;20045;-72
2021/08/11 05:03:46;;;;;;;11.32;7.20;;;16.50;99.90;;;;;;5064238;28;20410;-73
2021/08/11 05:06:13;;;;;;;9.98;7.78;;;16.50;99.90;;;;;;5053255;28;20041;-73
2021/08/11 05:08:39;;;;;;;11.45;6.90;;;16.50;99.90;;;;;;5053069;28;20041;-73
2021/08/11 05:11:05;;;;;;;10.40;7.07;;;16.50;99.90;;;;;;5051397;28;20041;-73
2021/08/11 05:13:32;;;;;;;13.10;8.18;;;16.50;99.90;;;;;;5052637;28;20040;-73
2021/08/11 05:15:58;;;;;;;13.48;8.07;;;16.60;99.90;;;;;;5052207;28;20052;-74
2021/08/11 05:18:24;;;;;;;11.02;8.05;;;16.70;99.90;;;;;;5055677;28;20032;-73
2021/08/11 05:20:54;;;;;;;11.57;7.28;;;16.70;99.90;;;;;;5063498;28;20063;-73
2021/08/11 05:23:20;;;;;;;14.70;6.70;;;16.80;99.90;;;;;;5052545;28;20033;-73
2021/08/11 05:25:47;;;;;;;11.23;7.82;;;16.80;99.90;;;;;;5052886;28;20056;-74
2021/08/11 05:28:13;;;;;;;9.77;7.40;;;16.80;99.90;;;;;;5052741;28;20037;-74
2021/08/11 05:30:40;;;;;;;10.80;7.40;;;16.90;99.90;;;;;;5067198;28;20060;-74
2021/08/11 05:33:07;;;;;;;12.00;6.93;;;17.00;99.90;;;;;;5052904;28;20056;-74
2021/08/11 05:35:33;;;;;;;11.68;7.78;;;17.10;99.90;;;;;;5053480;28;20471;-73
2021/08/11 05:38:00;;;;;;;11.57;8.00;;;17.10;99.90;;;;;;5051976;28;20064;-74
2021/08/11 05:40:27;;;;;;;10.35;7.20;;;17.10;99.90;;;;;;5052844;28;20037;-74
2021/08/11 05:42:53;;;;;;;10.73;7.70;;;17.10;99.90;;;;;;5052082;28;20481;-74
2021/08/11 05:45:19;;;;;;;11.23;7.57;;;17.20;99.90;;;;;;5072338;28;20120;-74
2021/08/11 05:47:45;;;;;;;11.75;7.75;;;17.10;99.90;;;;;;5052633;28;20033;-73
2021/08/11 05:50:12;;;;;;;10.07;7.85;;;17.20;99.90;;;;;;5052101;28;20036;-73
2021/08/11 05:52:38;;;;;;;10.05;7.93;;;17.30;99.90;;;;;;5052936;28;20045;-73
2021/08/11 05:55:05;;;;;;;11.73;8.02;;;17.30;99.90;;;;;;5051679;28;20045;-73
2021/08/11 05:57:35;;;;;;;9.88;6.82;;;17.40;99.90;;;;;;5051558;28;20048;-74
2021/08/11 06:00:03;;;;;;;9.18;7.28;;;17.30;99.90;;;;;;5060252;28;20037;-74
2021/08/11 06:02:30;;;;;;;10.27;6.65;;;17.30;99.90;;;;;;5052400;28;20470;-74
2021/08/11 06:05:13;;;;;;;11.55;6.82;;;17.40;99.90;;;;;;5065157;28;20041;-74
2021/08/11 06:07:39;;;;;;;8.43;7.45;;;17.40;99.90;;;;;;5070194;28;20462;-74
2021/08/11 06:10:06;;;;;;;9.30;7.15;;;17.50;99.90;;;;;;5051568;28;20036;-74
2021/08/11 06:12:33;;;;;;;10.25;6.35;;;17.60;99.90;;;;;;5050452;28;20060;-73
2021/08/11 06:15:00;;;;;;;8.35;6.50;;;17.70;99.90;;;;;;5051374;28;20489;-74
2021/08/11 06:17:26;;;;;;;11.32;7.25;;;17.90;99.90;;;;;;5051617;28;20064;-74
2021/08/11 06:19:52;;;;;;;8.70;6.55;;;18.10;99.90;;;;;;5051037;28;20045;-75
2021/08/11 06:22:19;;;;;;;8.07;6.93;;;18.30;99.90;;;;;;5056584;28;20029;-73
2021/08/11 06:24:45;;;;;;;9.20;6.40;;;18.10;99.90;;;;;;5052887;28;20300;-74
2021/08/11 06:27:12;;;;;;;8.57;6.57;;;18.20;99.90;;;;;;5067900;28;20098;-75
2021/08/11 06:29:38;;;;;;;11.63;6.97;;;18.30;99.90;;;;;;5051678;28;20029;-74
2021/08/11 06:32:05;;;;;;;11.40;6.35;;;18.50;99.90;;;;;;5056688;28;20504;-75
2021/08/11 06:34:32;;;;;;;10.20;5.72;;;18.60;99.90;;;;;;5056175;28;20054;-75
2021/08/11 06:36:59;;;;;;;7.68;6.75;;;18.60;99.90;;;;;;5051175;28;20466;-75
2021/08/11 06:39:25;;;;;;;10.25;6.47;;;18.60;99.90;;;;;;5051640;28;20052;-74
2021/08/11 06:41:51;;;;;;;8.65;6.40;;;18.50;99.90;;;;;;5066100;28;20035;-74
2021/08/11 06:44:20;;;;;;;8.73;6.40;;;18.50;99.90;;;;;;5048313;28;20037;-75
2021/08/11 06:46:46;;;;;;;7.53;6.15;;;18.60;99.90;;;;;;5072270;28;20044;-75
2021/08/11 06:49:14;;;;;;;9.60;5.50;;;18.90;99.90;;;;;;5079520;28;20059;-79
2021/08/11 06:51:40;;;;;;;6.75;5.75;;;19.00;99.90;;;;;;5064664;28;20049;-77
2021/08/11 06:54:10;;;;;;;8.57;5.72;;;19.40;99.90;;;;;;5065438;28;20037;-78
2021/08/11 06:56:36;;;;;;;11.13;5.25;;;19.80;99.90;;;;;;5073764;28;20037;-78
2021/08/11 06:59:04;;;;;;;10.43;6.13;;;19.80;99.90;;;;;;5080376;28;20039;-79
2021/08/11 07:01:30;;;;;;;7.30;5.88;;;20.00;99.90;;;;;;5071779;28;20035;-78
2021/08/11 07:03:57;;;;;;;6.45;5.75;;;20.10;99.90;;;;;;5053101;28;20040;-77
2021/08/11 07:06:23;;;;;;;6.65;5.40;;;20.20;99.90;;;;;;5070335;28;20025;-77
2021/08/11 07:08:49;;;;;;;9.70;5.82;;;20.00;99.90;;;;;;5069432;28;20056;-77
2021/08/11 07:11:16;;;;;;;6.88;5.35;;;19.80;99.90;;;;;;5056158;28;20104;-78
2021/08/11 07:13:42;;;;;;;8.50;5.18;;;19.60;99.90;;;;;;5055896;28;20489;-77
2021/08/11 07:16:08;;;;;;;8.52;5.15;;;19.70;99.90;;;;;;5055535;28;20032;-77
2021/08/11 07:18:35;;;;;;;7.95;6.18;;;19.70;99.90;;;;;;5054967;28;20033;-77
2021/08/11 07:21:02;;;;;;;9.65;5.90;;;19.60;99.90;;;;;;5055398;28;20458;-77
2021/08/11 07:23:28;;;;;;;9.70;6.30;;;19.70;99.90;;;;;;5055110;28;20032;-77
2021/08/11 07:25:54;;;;;;;8.98;5.90;;;19.80;99.90;;;;;;5054690;28;20033;-77
2021/08/11 07:28:21;;;;;;;11.15;5.80;;;19.80;99.90;;;;;;5055182;28;20029;-78
2021/08/11 07:30:47;;;;;;;12.10;6.07;;;19.70;99.90;;;;;;5037120;28;20049;-77
2021/08/11 07:33:13;;;;;;;7.80;5.85;;;19.50;99.90;;;;;;5054237;28;20049;-78
2021/08/11 07:35:40;;;;;;;10.80;6.32;;;19.40;99.90;;;;;;5054855;28;20037;-78
2021/08/11 07:38:07;;;;;;;6.72;5.07;;;19.50;99.90;;;;;;5053973;28;20041;-77
2021/08/11 07:40:34;;;;;;;9.25;6.47;;;19.70;99.90;;;;;;5054396;28;20048;-78
2021/08/11 07:43:01;;;;;;;9.45;5.57;;;19.90;99.90;;;;;;5054213;28;20033;-77
2021/08/11 07:45:30;;;;;;;7.82;5.47;;;20.40;99.90;;;;;;5053808;28;20025;-77
2021/08/11 07:47:57;;;;;;;10.48;5.53;;;21.10;99.90;;;;;;5052628;28;20045;-77
2021/08/11 07:50:29;;;;;;;6.35;5.30;;;21.00;99.90;;;;;;5052505;28;20028;-77
2021/08/11 07:52:56;;;;;;;8.52;5.35;;;21.20;99.90;;;;;;5053524;28;20033;-77
2021/08/11 07:55:23;;;;;;;7.97;5.05;;;21.00;99.90;;;;;;5054499;28;20037;-77
2021/08/11 07:57:49;;;;;;;8.05;5.05;;;21.60;99.70;;;;;;5085969;28;20060;-77
2021/08/11 08:00:18;;;;;;;7.03;5.45;;;22.20;98.30;;;;;;5054970;28;20041;-78
2021/08/11 08:02:45;;;;;;;10.40;5.82;;;22.20;97.50;;;;;;5068683;28;20470;-78
2021/08/11 08:05:12;;;;;;;7.10;4.88;;;22.10;97.20;;;;;;5053768;28;20040;-77
2021/08/11 08:07:38;;;;;;;8.10;5.10;;;22.10;96.60;;;;;;5068090;28;20049;-77
2021/08/11 08:10:06;;;;;;;8.65;5.30;;;22.00;96.50;;;;;;5053317;28;20036;-77
2021/08/11 08:12:32;;;;;;;7.13;5.22;;;22.70;94.70;;;;;;5053833;28;20036;-77
2021/08/11 08:14:59;;;;;;;8.35;5.13;;;23.40;92.90;;;;;;5053455;28;20037;-77
2021/08/11 08:17:26;;;;;;;8.27;5.22;;;22.80;93.60;;;;;;5054001;28;20038;-78
2021/08/11 08:19:53;;;;;;;6.88;5.15;;;23.70;91.80;;;;;;5056337;28;20044;-78
2021/08/11 08:22:19;;;;;;;6.10;4.13;;;23.90;90.60;;;;;;5064620;28;20032;-78
2021/08/11 08:24:45;;;;;;;6.68;4.50;;;23.60;89.00;;;;;;5073470;28;20473;-78
2021/08/11 08:27:12;;;;;;;7.55;3.85;;;23.30;90.40;;;;;;5056573;28;20047;-78
2021/08/11 08:29:38;;;;;;;5.03;3.92;;;24.10;87.40;;;;;;5053037;28;20472;-79
2021/08/11 08:32:05;;;;;;;8.82;4.40;;;24.40;86.00;;;;;;5058110;28;20393;-77
2021/08/11 08:34:31;;;;;;;7.55;3.58;;;24.20;84.00;;;;;;5056018;28;20045;-78
2021/08/11 08:36:57;;;;;;;5.28;3.00;;;24.20;82.40;;;;;;5053134;28;20044;-77
2021/08/11 08:39:23;;;;;;;8.55;3.55;;;24.70;81.70;;;;;;5066958;28;20036;-78
2021/08/11 08:41:50;;;;;;;8.32;3.85;;;24.80;79.90;;;;;;5052837;28;20490;-77
2021/08/11 08:44:17;;;;;;;6.40;3.72;;;25.20;79.10;;;;;;5052707;28;20033;-76
2021/08/11 08:46:43;;;;;;;7.13;3.85;;;25.20;79.60;;;;;;5053382;28;20036;-77
2021/08/11 08:49:10;;;;;;;4.88;3.45;;;25.30;78.40;;;;;;5052651;28;20040;-77
2021/08/11 08:51:52;;;;;;;7.22;3.45;;;24.80;78.80;;;;;;5067769;28;20072;-76
2021/08/11 08:54:23;;;;;;;6.38;3.60;;;24.50;79.20;;;;;;5052980;28;20047;-76
2021/08/11 08:56:49;;;;;;;6.18;3.20;;;24.30;79.10;;;;;;5053020;28;20048;-76
2021/08/11 08:59:16;;;;;;;4.60;3.42;;;24.60;79.10;;;;;;5053068;28;20033;-75
2021/08/11 09:01:42;;;;;;;5.57;3.58;;;24.90;78.40;;;;;;5070804;28;20041;-77
2021/08/11 09:04:09;;;;;;;4.75;3.25;;;25.30;77.00;;;;;;5059724;28;20041;-76
2021/08/11 09:06:36;;;;;;;6.38;3.40;;;25.20;74.70;;;;;;5052930;28;20033;-77
2021/08/11 09:09:05;;;;;;;6.88;3.95;;;24.80;76.80;;;;;;5056415;28;20033;-77
2021/08/11 09:11:33;;;;;;;6.88;3.30;;;24.60;74.50;;;;;;5061419;28;20477;-77
2021/08/11 09:14:17;;;;;;;6.43;3.35;;;24.60;75.40;;;;;;5052247;28;20033;-77
2021/08/11 09:16:54;;;;;;;6.32;3.65;;;25.30;73.20;;;;;;5061697;28;20045;-77
2021/08/11 09:19:22;;;;;;;5.35;3.13;;;25.90;71.40;;;;;;5057965;28;20161;-76
2021/08/11 09:22:03;;;;;;;6.50;3.40;;;25.70;72.90;;;;;;5052090;28;20437;-76
2021/08/11 09:24:33;;;;;;;5.25;3.13;;;25.70;70.50;;;;;;5052681;28;20028;-78
2021/08/11 09:27:23;;;;;;;8.90;3.05;;;25.70;71.60;;;;;;5059273;28;20037;-77
2021/08/11 09:30:07;;;;;;;4.80;2.83;;;26.80;69.20;;;;;;5052249;28;20029;-79
2021/08/11 09:32:55;;;;;;;5.70;2.90;;;27.00;65.80;;;;;;5051969;28;20049;-78
2021/08/11 09:35:32;;;;;;;5.63;3.42;;;27.00;66.90;;;;;;5052421;28;20033;-78
2021/08/11 09:38:07;;;;;;;7.13;3.05;;;27.30;65.80;;;;;;5061358;28;20049;-78
2021/08/11 09:40:35;;;;;;;4.38;2.95;;;27.60;64.60;;;;;;5077237;28;20033;-78
2021/08/11 09:43:32;;;;;;;4.93;2.67;;;27.50;65.00;;;;;;5077967;28;20031;-77
2021/08/11 09:45:58;;;;;;;5.20;3.40;;;26.80;66.20;;;;;;5068377;28;20029;-77
2021/08/11 09:48:38;;;;;;;3.72;2.80;;;26.90;65.80;;;;;;5052232;28;20040;-78
2021/08/11 09:51:06;;;;;;;5.38;2.80;;;26.60;66.10;;;;;;5051662;28;20033;-77
2021/08/11 09:53:37;;;;;;;4.28;2.92;;;26.60;65.70;;;;;;5051844;28;20052;-77
2021/08/11 09:56:06;;;;;;;6.15;3.30;;;26.50;66.10;;;;;;5051638;28;20033;-77
2021/08/11 09:58:38;;;;;;;5.07;3.22;;;26.10;66.60;;;;;;5051788;28;20033;-78
2021/08/11 10:01:14;;;;;;;6.45;3.28;;;26.60;66.40;;;;;;5051556;28;20466;-77
2021/08/11 10:04:00;;;;;;;4.07;2.45;;;27.10;64.50;;;;;;5059705;28;20045;-76
2021/08/11 10:06:34;;;;;;;5.50;3.13;;;27.10;65.20;;;;;;5053533;28;20033;-78
2021/08/11 10:09:25;;;;;;;6.00;3.53;;;26.80;66.20;;;;;;5051615;28;20044;-77
2021/08/11 10:11:56;;;;;;;5.88;4.18;;;26.40;66.20;;;;;;5051608;28;20052;-76
2021/08/11 10:14:27;;;;;;;5.28;4.38;;;25.60;66.70;;;;;;5057095;28;20029;-76
2021/08/11 10:16:57;;;;;;;5.32;3.75;;;25.20;69.10;;;;;;5054476;28;20045;-75
2021/08/11 10:19:27;;;;;;;5.53;3.88;;;25.10;68.70;;;;;;5063777;28;20048;-77
2021/08/11 10:22:01;;;;;;;8.32;4.32;;;25.30;68.30;;;;;;5066261;28;20041;-76
2021/08/11 10:24:30;;;;;;;5.75;3.03;;;24.90;68.00;;;;;;5050309;28;20044;-76
2021/08/11 10:26:57;;;;;;;5.38;3.85;;;25.60;68.90;;;;;;5050523;28;20040;-77
2021/08/11 10:29:24;;;;;;;6.80;4.70;;;26.20;67.90;;;;;;5064230;28;20036;-78
2021/08/11 10:31:51;;;;;;;5.03;3.13;;;26.00;66.70;;;;;;5053205;28;20051;-76
2021/08/11 10:34:18;;;;;;;6.72;3.97;;;26.10;68.50;;;;;;5061521;28;20045;-77
2021/08/11 10:36:46;;;;;;;9.30;5.18;;;26.30;66.30;;;;;;5070103;28;20025;-76
2021/08/11 10:39:16;;;;;;;7.32;5.43;;;26.00;65.00;;;;;;5053939;28;20055;-77
2021/08/11 10:41:43;;;;;;;7.38;5.00;;;25.80;65.60;;;;;;5051538;28;20339;-76
2021/08/11 10:44:19;;;;;;;7.75;4.95;;;25.60;65.50;;;;;;5049378;28;20413;-77
2021/08/11 10:46:52;;;;;;;7.53;5.18;;;25.00;66.80;;;;;;5057478;28;20044;-79
2021/08/11 10:49:19;;;;;;;8.95;4.68;;;24.80;67.40;;;;;;5065167;28;20029;-78
2021/08/11 10:51:47;;;;;;;7.03;3.33;;;25.00;67.50;;;;;;5064808;28;20029;-77
2021/08/11 10:54:15;;;;;;;8.00;4.25;;;25.10;67.50;;;;;;5055786;28;20399;-78
2021/08/11 10:56:48;;;;;;;6.57;4.78;;;25.50;66.20;;;;;;5060734;28;20041;-77
2021/08/11 10:59:28;;;;;;;5.65;3.95;;;25.30;65.10;;;;;;5050962;28;20029;-78
2021/08/11 11:01:56;;;;;;;9.60;4.07;;;25.00;65.60;;;;;;5051255;28;20043;-78
2021/08/11 11:04:38;;;;;;;7.47;3.78;;;24.90;66.30;;;;;;5052204;28;20044;-78
2021/08/11 11:07:11;;;;;;;4.75;3.17;;;24.70;66.60;;;;;;5055865;28;20040;-77
2021/08/11 11:09:38;;;;;;;3.75;2.15;;;24.70;66.40;;;;;;5064988;28;20040;-78
2021/08/11 11:12:17;;;;;;;5.57;2.30;;;24.90;65.90;;;;;;5057673;28;20454;-77
2021/08/11 11:14:52;;;;;;;4.95;2.10;;;25.10;65.30;;;;;;5068328;28;20040;-78
2021/08/11 11:17:20;;;;;;;3.65;1.75;;;25.60;64.70;;;;;;5053680;28;20037;-78
2021/08/11 11:20:08;;;;;;;3.75;2.50;;;25.70;64.40;;;;;;5053149;28;20053;-78
2021/08/11 11:22:39;;;;;;;3.05;1.75;;;25.90;62.50;;;;;;5053571;28;20037;-78
2021/08/11 11:25:15;;;;;;;6.35;2.63;;;26.20;63.90;;;;;;5070261;28;20048;-76
2021/08/11 11:27:41;;;;;;;4.35;2.42;;;26.80;62.70;;;;;;5052729;28;20029;-77
2021/08/11 11:30:27;;;;;;;6.30;2.95;;;26.90;61.60;;;;;;5051176;28;20048;-78
2021/08/11 11:32:54;;;;;;;5.15;2.40;;;27.00;62.10;;;;;;5051557;28;20045;-77
2021/08/11 11:35:24;;;;;;;3.65;2.40;;;27.30;60.30;;;;;;5066099;28;20040;-78
2021/08/11 11:38:18;;;;;;;;;;;26.80;60.50;;;;;;5056587;28;20033;-76
2021/08/11 11:40:56;;;;;;;4.50;2.20;;;26.40;61.20;;;;;;5049498;28;20392;-77
2021/08/11 11:43:29;;;;;;;2.70;1.50;;;26.10;61.60;;;;;;5050946;28;20037;-77
2021/08/11 11:45:57;;;;;;;4.28;2.22;;;26.30;61.50;;;;;;5050860;28;20041;-77
2021/08/11 11:48:25;;;;;;;4.20;1.98;;;26.40;61.20;;;;;;5061029;28;20029;-77
2021/08/11 11:51:00;;;;;;;10.90;2.30;;;26.60;61.10;;;;;;5058676;28;20037;-76
2021/08/11 11:53:29;;;;;;;2.88;1.98;;;26.60;60.40;;;;;;5050630;28;20029;-76
2021/08/11 11:55:56;;;;;;;4.60;2.28;;;26.50;61.20;;;;;;5050300;28;20124;-77
2021/08/11 11:58:25;;;;;;;3.03;2.20;;;26.20;61.40;;;;;;5055514;28;20040;-76
2021/08/11 12:01:04;;;;;;;4.70;2.28;;;25.80;62.00;;;;;;5054649;28;20036;-75
2021/08/11 12:03:33;;;;;;;4.00;2.20;;;26.00;61.10;;;;;;5065168;28;20044;-77
2021/08/11 12:05:59;;;;;;;4.15;2.45;;;26.00;61.50;;;;;;5061027;28;20029;-77
2021/08/11 12:08:26;;;;;;;3.75;2.22;;;26.10;60.60;;;;;;5073969;28;20041;-76
2021/08/11 12:11:12;;;;;;;7.10;2.55;;;26.20;61.20;;;;;;5075674;28;20044;-77
2021/08/11 12:13:50;;;;;;;5.65;2.60;;;26.30;61.40;;;;;;5056410;28;20037;-76
2021/08/11 12:16:18;;;;;;;4.80;2.20;;;26.40;60.60;;;;;;5055399;28;20048;-77
2021/08/11 12:18:47;;;;;;;4.20;2.42;;;26.50;59.40;;;;;;5055471;28;20478;-76
2021/08/11 12:21:16;;;;;;;5.70;2.97;;;26.30;60.00;;;;;;5055238;28;20033;-76
2021/08/11 12:23:43;;;;;;;2.78;1.80;;;26.40;60.10;;;;;;5054582;28;20033;-78
2021/08/11 12:26:15;;;;;;;5.07;2.42;;;26.60;59.70;;;;;;5064777;28;20035;-76
2021/08/11 12:28:47;;;;;;;3.97;2.40;;;26.70;59.00;;;;;;5054108;28;20036;-78
2021/08/11 12:31:20;;;;;;;4.32;2.63;;;27.00;59.10;;;;;;5062672;28;20033;-77
2021/08/11 12:33:48;;;;;;;4.25;2.55;;;27.00;59.50;;;;;;5053524;28;20045;-77
2021/08/11 12:36:22;;;;;;;3.95;2.05;;;27.20;59.00;;;;;;5053178;28;20036;-74
2021/08/11 12:39:13;;;;;;;3.97;2.83;;;27.00;59.10;;;;;;5053242;28;20040;-75
2021/08/11 12:41:41;;;;;;;4.65;2.50;;;26.70;58.10;;;;;;5053309;28;20470;-75
2021/08/11 12:44:21;;;;;;;3.72;2.25;;;26.90;58.50;;;;;;5067143;28;20037;-74
2021/08/11 12:46:49;;;;;;;3.97;2.20;;;27.10;57.40;;;;;;5067328;28;20402;-73
2021/08/11 12:49:18;;;;;;;4.35;2.08;;;27.20;58.20;;;;;;5052973;28;20044;-75
2021/08/11 12:51:44;;;;;;;3.40;2.28;;;27.40;58.00;;;;;;5070721;28;20035;-74
2021/08/11 12:54:11;;;;;;;4.20;2.42;;;27.20;57.60;;;;;;5052291;28;20224;-73
2021/08/11 12:56:57;;;;;;;5.60;2.45;;;27.30;56.80;;;;;;5052695;28;20036;-74
2021/08/11 12:59:46;;;;;;;7.18;2.88;;;27.40;56.30;;;;;;5053048;28;20041;-73